sensor_id;sensor_type;location;lat;lon;timestamp;temperature;humidity
1994;DHT22;998;49.906;10.908;2023-06-26T00:01:30;23.60;99.90
1994;DHT22;998;49.906;10.908;2023-06-26T00:03:58;23.60;99.90
1994;DHT22;998;49.906;10.908;2023-06-26T00:06:25;23.60;99.90
1994;DHT22;998;49.906;10.908;2023-06-26T00:08:53;23.50;99.90
1994;DHT22;998;49.906;10.908;2023-06-26T00:11:21;23.40;99.90
1994;DHT22;998;49.906;10.908;2023-06-26T00:13:48;23.30;99.90
1994;DHT22;998;49.906;10.908;2023-06-26T00:16:15;23.20;99.90
1994;DHT22;998;49.906;10.908;2023-06-26T00:18:42;23.10;99.90
1994;DHT22;998;49.906;10.908;2023-06-26T00:21:08;23.00;99.90
1994;DHT22;998;49.906;10.908;2023-06-26T00:23:35;23.10;99.90
1994;DHT22;998;49.906;10.908;2023-06-26T00:26:04;23.10;99.90
1994;DHT22;998;49.906;10.908;2023-06-26T00:28:31;23.10;99.90
1994;DHT22;998;49.906;10.908;2023-06-26T00:30:58;23.00;99.90
1994;DHT22;998;49.906;10.908;2023-06-26T00:33:24;22.90;99.90
1994;DHT22;998;49.906;10.908;2023-06-26T00:35:51;22.90;99.90
1994;DHT22;998;49.906;10.908;2023-06-26T00:38:18;22.80;99.90
1994;DHT22;998;49.906;10.908;2023-06-26T00:40:45;22.80;99.90
1994;DHT22;998;49.906;10.908;2023-06-26T00:43:13;22.70;99.90
1994;DHT22;998;49.906;10.908;2023-06-26T00:45:40;22.70;99.90
1994;DHT22;998;49.906;10.908;2023-06-26T00:48:07;22.70;99.90
1994;DHT22;998;49.906;10.908;2023-06-26T00:50:35;22.70;99.90
1994;DHT22;998;49.906;10.908;2023-06-26T00:53:02;22.60;99.90
1994;DHT22;998;49.906;10.908;2023-06-26T00:55:29;22.50;99.90
1994;DHT22;998;49.906;10.908;2023-06-26T00:57:57;22.50;99.90
1994;DHT22;998;49.906;10.908;2023-06-26T01:00:26;22.40;99.90
1994;DHT22;998;49.906;10.908;2023-06-26T01:02:54;22.20;99.90
1994;DHT22;998;49.906;10.908;2023-06-26T01:05:24;22.30;99.90
1994;DHT22;998;49.906;10.908;2023-06-26T01:07:52;22.20;99.90
1994;DHT22;998;49.906;10.908;2023-06-26T01:10:19;22.20;99.90
1994;DHT22;998;49.906;10.908;2023-06-26T01:12:46;22.20;99.90
1994;DHT22;998;49.906;10.908;2023-06-26T01:15:13;22.20;99.90
1994;DHT22;998;49.906;10.908;2023-06-26T01:17:43;22.30;99.90
1994;DHT22;998;49.906;10.908;2023-06-26T01:20:13;22.30;99.90
1994;DHT22;998;49.906;10.908;2023-06-26T01:22:47;22.20;99.90
1994;DHT22;998;49.906;10.908;2023-06-26T01:25:21;22.10;99.90
1994;DHT22;998;49.906;10.908;2023-06-26T01:27:52;22.10;99.90
1994;DHT22;998;49.906;10.908;2023-06-26T01:30:21;22.10;99.90
1994;DHT22;998;49.906;10.908;2023-06-26T01:32:48;22.10;99.90
1994;DHT22;998;49.906;10.908;2023-06-26T01:35:17;22.10;99.90
1994;DHT22;998;49.906;10.908;2023-06-26T01:37:45;22.00;99.90
1994;DHT22;998;49.906;10.908;2023-06-26T01:40:12;22.00;99.90
1994;DHT22;998;49.906;10.908;2023-06-26T01:42:39;21.90;99.90
1994;DHT22;998;49.906;10.908;2023-06-26T01:45:14;21.90;99.90
1994;DHT22;998;49.906;10.908;2023-06-26T01:47:48;21.80;99.90
1994;DHT22;998;49.906;10.908;2023-06-26T01:50:20;21.80;99.90
1994;DHT22;998;49.906;10.908;2023-06-26T01:52:56;21.80;99.90
1994;DHT22;998;49.906;10.908;2023-06-26T01:55:32;21.80;99.90
1994;DHT22;998;49.906;10.908;2023-06-26T01:58:02;21.70;99.90
1994;DHT22;998;49.906;10.908;2023-06-26T02:00:30;21.60;99.90
1994;DHT22;998;49.906;10.908;2023-06-26T02:02:58;21.60;99.90
1994;DHT22;998;49.906;10.908;2023-06-26T02:05:25;21.60;99.90
1994;DHT22;998;49.906;10.908;2023-06-26T02:07:52;21.40;99.90
1994;DHT22;998;49.906;10.908;2023-06-26T02:10:19;21.40;99.90
1994;DHT22;998;49.906;10.908;2023-06-26T02:12:46;21.50;99.90
1994;DHT22;998;49.906;10.908;2023-06-26T02:15:12;21.40;99.90
1994;DHT22;998;49.906;10.908;2023-06-26T02:17:41;21.30;99.90
1994;DHT22;998;49.906;10.908;2023-06-26T02:20:08;21.30;99.90
1994;DHT22;998;49.906;10.908;2023-06-26T02:22:35;21.40;99.90
1994;DHT22;998;49.906;10.908;2023-06-26T02:25:02;21.30;99.90
1994;DHT22;998;49.906;10.908;2023-06-26T02:27:29;21.10;99.90
1994;DHT22;998;49.906;10.908;2023-06-26T02:29:56;21.20;99.90
1994;DHT22;998;49.906;10.908;2023-06-26T02:32:23;21.20;99.90
1994;DHT22;998;49.906;10.908;2023-06-26T02:34:51;21.10;99.90
1994;DHT22;998;49.906;10.908;2023-06-26T02:37:18;21.10;99.90
1994;DHT22;998;49.906;10.908;2023-06-26T02:39:45;21.10;99.90
1994;DHT22;998;49.906;10.908;2023-06-26T02:42:11;21.20;99.90
1994;DHT22;998;49.906;10.908;2023-06-26T02:44:38;21.30;99.90
1994;DHT22;998;49.906;10.908;2023-06-26T02:47:05;21.20;99.90
1994;DHT22;998;49.906;10.908;2023-06-26T02:49:32;21.20;99.90
1994;DHT22;998;49.906;10.908;2023-06-26T02:52:00;21.10;99.90
1994;DHT22;998;49.906;10.908;2023-06-26T02:54:27;20.90;99.90
1994;DHT22;998;49.906;10.908;2023-06-26T02:56:54;20.90;99.90
1994;DHT22;998;49.906;10.908;2023-06-26T02:59:20;20.90;99.90
1994;DHT22;998;49.906;10.908;2023-06-26T03:01:47;20.90;99.90
1994;DHT22;998;49.906;10.908;2023-06-26T03:04:14;20.90;99.90
1994;DHT22;998;49.906;10.908;2023-06-26T03:06:43;20.90;99.90
1994;DHT22;998;49.906;10.908;2023-06-26T03:09:11;20.90;99.90
1994;DHT22;998;49.906;10.908;2023-06-26T03:11:38;20.90;99.90
1994;DHT22;998;49.906;10.908;2023-06-26T03:14:04;21.00;99.90
1994;DHT22;998;49.906;10.908;2023-06-26T03:16:31;21.00;99.90
1994;DHT22;998;49.906;10.908;2023-06-26T03:18:58;21.00;99.90
1994;DHT22;998;49.906;10.908;2023-06-26T03:21:25;20.90;99.90
1994;DHT22;998;49.906;10.908;2023-06-26T03:23:51;20.70;99.90
1994;DHT22;998;49.906;10.908;2023-06-26T03:26:20;20.70;99.90
1994;DHT22;998;49.906;10.908;2023-06-26T03:28:53;20.70;99.90
1994;DHT22;998;49.906;10.908;2023-06-26T03:31:20;20.70;99.90
1994;DHT22;998;49.906;10.908;2023-06-26T03:33:47;20.60;99.90
1994;DHT22;998;49.906;10.908;2023-06-26T03:36:13;20.60;99.90
1994;DHT22;998;49.906;10.908;2023-06-26T03:38:41;20.50;99.90
1994;DHT22;998;49.906;10.908;2023-06-26T03:41:07;20.50;99.90
1994;DHT22;998;49.906;10.908;2023-06-26T03:43:36;20.30;99.90
1994;DHT22;998;49.906;10.908;2023-06-26T03:46:03;20.40;99.90
1994;DHT22;998;49.906;10.908;2023-06-26T03:48:29;20.30;99.90
1994;DHT22;998;49.906;10.908;2023-06-26T03:50:57;20.40;99.90
1994;DHT22;998;49.906;10.908;2023-06-26T03:53:24;20.50;99.90
1994;DHT22;998;49.906;10.908;2023-06-26T03:55:51;20.50;99.90
1994;DHT22;998;49.906;10.908;2023-06-26T03:58:17;20.50;99.90
1994;DHT22;998;49.906;10.908;2023-06-26T04:00:45;20.50;99.90
1994;DHT22;998;49.906;10.908;2023-06-26T04:03:13;20.50;99.90
1994;DHT22;998;49.906;10.908;2023-06-26T04:05:40;20.50;99.90
1994;DHT22;998;49.906;10.908;2023-06-26T04:08:07;20.50;99.90
1994;DHT22;998;49.906;10.908;2023-06-26T04:10:34;20.50;99.90
1994;DHT22;998;49.906;10.908;2023-06-26T04:13:01;20.60;99.90
1994;DHT22;998;49.906;10.908;2023-06-26T04:15:28;20.70;99.90
1994;DHT22;998;49.906;10.908;2023-06-26T04:17:56;20.60;99.90
1994;DHT22;998;49.906;10.908;2023-06-26T04:20:23;20.70;99.90
1994;DHT22;998;49.906;10.908;2023-06-26T04:22:50;20.70;99.90
1994;DHT22;998;49.906;10.908;2023-06-26T04:25:16;20.70;99.90
1994;DHT22;998;49.906;10.908;2023-06-26T04:27:43;20.60;99.90
1994;DHT22;998;49.906;10.908;2023-06-26T04:30:11;20.60;99.90
1994;DHT22;998;49.906;10.908;2023-06-26T04:32:38;20.70;99.90
1994;DHT22;998;49.906;10.908;2023-06-26T04:35:07;20.60;99.90
1994;DHT22;998;49.906;10.908;2023-06-26T04:37:35;20.50;99.90
1994;DHT22;998;49.906;10.908;2023-06-26T04:40:02;20.50;99.90
1994;DHT22;998;49.906;10.908;2023-06-26T04:42:30;20.50;99.90
1994;DHT22;998;49.906;10.908;2023-06-26T04:44:57;20.50;99.90
1994;DHT22;998;49.906;10.908;2023-06-26T04:47:24;20.70;99.90
1994;DHT22;998;49.906;10.908;2023-06-26T04:49:51;20.40;99.90
1994;DHT22;998;49.906;10.908;2023-06-26T04:52:19;20.40;99.90
1994;DHT22;998;49.906;10.908;2023-06-26T04:54:46;20.50;99.90
1994;DHT22;998;49.906;10.908;2023-06-26T04:57:12;20.60;99.90
1994;DHT22;998;49.906;10.908;2023-06-26T04:59:40;20.70;99.90
1994;DHT22;998;49.906;10.908;2023-06-26T05:02:07;20.70;99.90
1994;DHT22;998;49.906;10.908;2023-06-26T05:04:33;20.70;99.90
1994;DHT22;998;49.906;10.908;2023-06-26T05:07:00;20.60;99.90
1994;DHT22;998;49.906;10.908;2023-06-26T05:09:28;20.80;99.90
1994;DHT22;998;49.906;10.908;2023-06-26T05:11:55;20.70;99.90
1994;DHT22;998;49.906;10.908;2023-06-26T05:14:22;20.70;99.90
1994;DHT22;998;49.906;10.908;2023-06-26T05:16:48;20.70;99.90
1994;DHT22;998;49.906;10.908;2023-06-26T05:19:15;20.70;99.90
1994;DHT22;998;49.906;10.908;2023-06-26T05:21:42;20.80;99.90
1994;DHT22;998;49.906;10.908;2023-06-26T05:24:11;20.80;99.90
1994;DHT22;998;49.906;10.908;2023-06-26T05:26:41;20.90;99.90
1994;DHT22;998;49.906;10.908;2023-06-26T05:29:08;20.90;99.90
1994;DHT22;998;49.906;10.908;2023-06-26T05:31:40;20.90;99.90
1994;DHT22;998;49.906;10.908;2023-06-26T05:34:07;20.90;99.90
1994;DHT22;998;49.906;10.908;2023-06-26T05:36:37;21.00;99.90
1994;DHT22;998;49.906;10.908;2023-06-26T05:39:05;21.10;99.90
1994;DHT22;998;49.906;10.908;2023-06-26T05:41:33;21.10;99.90
1994;DHT22;998;49.906;10.908;2023-06-26T05:44:01;21.20;99.90
1994;DHT22;998;49.906;10.908;2023-06-26T05:46:27;21.20;99.90
1994;DHT22;998;49.906;10.908;2023-06-26T05:48:54;21.20;99.90
1994;DHT22;998;49.906;10.908;2023-06-26T05:51:21;21.30;99.90
1994;DHT22;998;49.906;10.908;2023-06-26T05:53:49;21.30;99.90
1994;DHT22;998;49.906;10.908;2023-06-26T05:56:16;21.30;99.90
1994;DHT22;998;49.906;10.908;2023-06-26T05:58:44;21.40;99.90
1994;DHT22;998;49.906;10.908;2023-06-26T06:01:13;21.50;99.90
1994;DHT22;998;49.906;10.908;2023-06-26T06:03:40;21.50;99.90
1994;DHT22;998;49.906;10.908;2023-06-26T06:06:07;21.50;99.90
1994;DHT22;998;49.906;10.908;2023-06-26T06:08:34;21.50;99.90
1994;DHT22;998;49.906;10.908;2023-06-26T06:11:01;21.40;99.90
1994;DHT22;998;49.906;10.908;2023-06-26T06:13:28;21.40;99.90
1994;DHT22;998;49.906;10.908;2023-06-26T06:15:55;21.40;99.90
1994;DHT22;998;49.906;10.908;2023-06-26T06:18:23;21.50;99.90
1994;DHT22;998;49.906;10.908;2023-06-26T06:20:50;21.50;99.90
1994;DHT22;998;49.906;10.908;2023-06-26T06:23:16;21.50;99.90
1994;DHT22;998;49.906;10.908;2023-06-26T06:25:43;21.50;99.90
1994;DHT22;998;49.906;10.908;2023-06-26T06:28:10;21.60;99.90
1994;DHT22;998;49.906;10.908;2023-06-26T06:30:37;21.80;99.90
1994;DHT22;998;49.906;10.908;2023-06-26T06:33:03;21.70;99.90
1994;DHT22;998;49.906;10.908;2023-06-26T06:35:32;21.70;99.90
1994;DHT22;998;49.906;10.908;2023-06-26T06:37:58;21.80;99.90
1994;DHT22;998;49.906;10.908;2023-06-26T06:40:25;21.80;99.90
1994;DHT22;998;49.906;10.908;2023-06-26T06:42:52;21.90;99.90
1994;DHT22;998;49.906;10.908;2023-06-26T06:45:19;22.00;99.90
1994;DHT22;998;49.906;10.908;2023-06-26T06:47:46;22.00;99.90
1994;DHT22;998;49.906;10.908;2023-06-26T06:50:12;22.00;99.90
1994;DHT22;998;49.906;10.908;2023-06-26T06:52:42;22.00;99.90
1994;DHT22;998;49.906;10.908;2023-06-26T06:55:10;22.10;99.90
1994;DHT22;998;49.906;10.908;2023-06-26T06:57:37;22.20;99.90
1994;DHT22;998;49.906;10.908;2023-06-26T07:00:05;22.20;99.90
1994;DHT22;998;49.906;10.908;2023-06-26T07:02:34;22.10;99.90
1994;DHT22;998;49.906;10.908;2023-06-26T07:05:02;22.20;99.90
1994;DHT22;998;49.906;10.908;2023-06-26T07:07:30;22.30;99.90
1994;DHT22;998;49.906;10.908;2023-06-26T07:09:59;22.30;99.90
1994;DHT22;998;49.906;10.908;2023-06-26T07:12:26;22.30;99.90
1994;DHT22;998;49.906;10.908;2023-06-26T07:14:52;22.40;99.90
1994;DHT22;998;49.906;10.908;2023-06-26T07:17:19;22.30;99.90
1994;DHT22;998;49.906;10.908;2023-06-26T07:19:47;22.50;99.90
1994;DHT22;998;49.906;10.908;2023-06-26T07:22:13;22.60;99.90
1994;DHT22;998;49.906;10.908;2023-06-26T07:24:40;22.60;99.90
1994;DHT22;998;49.906;10.908;2023-06-26T07:27:08;22.70;99.90
1994;DHT22;998;49.906;10.908;2023-06-26T07:29:35;22.60;99.90
1994;DHT22;998;49.906;10.908;2023-06-26T07:32:02;22.80;99.90
1994;DHT22;998;49.906;10.908;2023-06-26T07:34:29;22.90;99.90
1994;DHT22;998;49.906;10.908;2023-06-26T07:36:56;22.90;99.90
1994;DHT22;998;49.906;10.908;2023-06-26T07:39:23;23.10;99.90
1994;DHT22;998;49.906;10.908;2023-06-26T07:41:49;23.00;99.90
1994;DHT22;998;49.906;10.908;2023-06-26T07:44:18;23.10;99.90
1994;DHT22;998;49.906;10.908;2023-06-26T07:46:44;23.10;99.90
1994;DHT22;998;49.906;10.908;2023-06-26T07:49:12;23.10;99.90
1994;DHT22;998;49.906;10.908;2023-06-26T07:51:38;23.10;99.90
1994;DHT22;998;49.906;10.908;2023-06-26T07:54:05;23.20;99.90
1994;DHT22;998;49.906;10.908;2023-06-26T07:56:35;23.30;99.90
1994;DHT22;998;49.906;10.908;2023-06-26T07:59:19;23.30;99.90
1994;DHT22;998;49.906;10.908;2023-06-26T08:01:47;23.40;99.90
1994;DHT22;998;49.906;10.908;2023-06-26T08:04:17;23.40;99.90
1994;DHT22;998;49.906;10.908;2023-06-26T08:06:44;23.40;99.90
1994;DHT22;998;49.906;10.908;2023-06-26T08:09:11;23.40;99.90
1994;DHT22;998;49.906;10.908;2023-06-26T08:11:39;23.60;99.90
1994;DHT22;998;49.906;10.908;2023-06-26T08:14:05;23.40;99.90
1994;DHT22;998;49.906;10.908;2023-06-26T08:16:34;23.50;99.90
1994;DHT22;998;49.906;10.908;2023-06-26T08:19:01;23.50;99.90
1994;DHT22;998;49.906;10.908;2023-06-26T08:21:27;23.60;99.90
1994;DHT22;998;49.906;10.908;2023-06-26T08:23:54;23.70;99.90
1994;DHT22;998;49.906;10.908;2023-06-26T08:26:21;23.70;99.90
1994;DHT22;998;49.906;10.908;2023-06-26T08:28:48;23.80;99.90
1994;DHT22;998;49.906;10.908;2023-06-26T08:31:16;23.80;99.90
1994;DHT22;998;49.906;10.908;2023-06-26T08:33:44;23.90;99.90
1994;DHT22;998;49.906;10.908;2023-06-26T08:36:11;23.90;99.90
1994;DHT22;998;49.906;10.908;2023-06-26T08:38:38;23.80;99.90
1994;DHT22;998;49.906;10.908;2023-06-26T08:43:36;24.00;99.90
1994;DHT22;998;49.906;10.908;2023-06-26T08:46:03;24.10;99.90
1994;DHT22;998;49.906;10.908;2023-06-26T08:48:32;24.20;99.90
1994;DHT22;998;49.906;10.908;2023-06-26T08:51:07;24.20;99.90
1994;DHT22;998;49.906;10.908;2023-06-26T08:53:40;24.10;99.90
1994;DHT22;998;49.906;10.908;2023-06-26T08:56:08;24.10;99.90
1994;DHT22;998;49.906;10.908;2023-06-26T08:58:36;24.20;99.90
1994;DHT22;998;49.906;10.908;2023-06-26T09:01:04;24.30;99.90
1994;DHT22;998;49.906;10.908;2023-06-26T09:03:32;24.40;99.90
1994;DHT22;998;49.906;10.908;2023-06-26T09:06:01;24.50;99.90
1994;DHT22;998;49.906;10.908;2023-06-26T09:08:27;24.40;99.90
1994;DHT22;998;49.906;10.908;2023-06-26T09:10:54;24.40;99.90
1994;DHT22;998;49.906;10.908;2023-06-26T09:13:21;24.50;99.90
1994;DHT22;998;49.906;10.908;2023-06-26T09:15:48;24.50;99.90
1994;DHT22;998;49.906;10.908;2023-06-26T09:18:20;24.60;99.90
1994;DHT22;998;49.906;10.908;2023-06-26T09:20:47;24.80;99.90
1994;DHT22;998;49.906;10.908;2023-06-26T09:23:16;24.80;99.90
1994;DHT22;998;49.906;10.908;2023-06-26T09:25:42;24.80;99.90
1994;DHT22;998;49.906;10.908;2023-06-26T09:28:10;24.80;99.90
1994;DHT22;998;49.906;10.908;2023-06-26T09:30:37;25.00;99.90
1994;DHT22;998;49.906;10.908;2023-06-26T09:33:14;25.10;99.90
1994;DHT22;998;49.906;10.908;2023-06-26T09:35:42;25.10;99.90
1994;DHT22;998;49.906;10.908;2023-06-26T09:38:09;25.10;99.90
1994;DHT22;998;49.906;10.908;2023-06-26T09:40:37;25.30;99.90
1994;DHT22;998;49.906;10.908;2023-06-26T09:43:04;25.10;99.90
1994;DHT22;998;49.906;10.908;2023-06-26T09:45:32;25.30;99.90
1994;DHT22;998;49.906;10.908;2023-06-26T09:48:00;25.40;99.90
1994;DHT22;998;49.906;10.908;2023-06-26T09:50:28;25.40;99.90
1994;DHT22;998;49.906;10.908;2023-06-26T09:52:55;25.40;99.90
1994;DHT22;998;49.906;10.908;2023-06-26T09:55:24;25.50;99.90
1994;DHT22;998;49.906;10.908;2023-06-26T09:57:56;25.70;99.90
1994;DHT22;998;49.906;10.908;2023-06-26T10:00:23;25.70;99.90
1994;DHT22;998;49.906;10.908;2023-06-26T10:02:50;25.80;99.90
1994;DHT22;998;49.906;10.908;2023-06-26T10:05:16;25.80;99.90
1994;DHT22;998;49.906;10.908;2023-06-26T10:07:43;26.00;99.90
1994;DHT22;998;49.906;10.908;2023-06-26T10:10:11;26.00;99.90
1994;DHT22;998;49.906;10.908;2023-06-26T10:12:38;26.00;99.90
1994;DHT22;998;49.906;10.908;2023-06-26T10:15:09;26.00;99.90
1994;DHT22;998;49.906;10.908;2023-06-26T10:17:43;26.00;98.40
1994;DHT22;998;49.906;10.908;2023-06-26T10:20:13;26.20;98.20
1994;DHT22;998;49.906;10.908;2023-06-26T10:22:44;26.40;98.60
1994;DHT22;998;49.906;10.908;2023-06-26T10:25:14;26.40;99.20
1994;DHT22;998;49.906;10.908;2023-06-26T10:27:49;26.30;98.20
1994;DHT22;998;49.906;10.908;2023-06-26T10:30:22;26.20;98.40
1994;DHT22;998;49.906;10.908;2023-06-26T10:32:50;26.20;99.20
1994;DHT22;998;49.906;10.908;2023-06-26T10:35:17;26.40;97.90
1994;DHT22;998;49.906;10.908;2023-06-26T10:37:45;26.50;94.20
1994;DHT22;998;49.906;10.908;2023-06-26T10:40:13;26.40;96.10
1994;DHT22;998;49.906;10.908;2023-06-26T10:42:40;26.40;97.00
1994;DHT22;998;49.906;10.908;2023-06-26T10:45:14;26.50;93.50
1994;DHT22;998;49.906;10.908;2023-06-26T10:47:45;26.70;91.10
1994;DHT22;998;49.906;10.908;2023-06-26T10:50:23;26.70;90.40
1994;DHT22;998;49.906;10.908;2023-06-26T10:53:10;27.00;88.30
1994;DHT22;998;49.906;10.908;2023-06-26T10:55:42;26.90;86.80
1994;DHT22;998;49.906;10.908;2023-06-26T10:58:27;26.80;88.70
1994;DHT22;998;49.906;10.908;2023-06-26T11:01:14;26.70;87.70
1994;DHT22;998;49.906;10.908;2023-06-26T11:03:59;26.90;86.30
1994;DHT22;998;49.906;10.908;2023-06-26T11:06:28;27.00;85.50
1994;DHT22;998;49.906;10.908;2023-06-26T11:09:01;27.20;84.50
1994;DHT22;998;49.906;10.908;2023-06-26T11:11:57;27.20;83.80
1994;DHT22;998;49.906;10.908;2023-06-26T11:14:33;27.20;83.00
1994;DHT22;998;49.906;10.908;2023-06-26T11:17:03;27.30;83.80
1994;DHT22;998;49.906;10.908;2023-06-26T11:19:40;27.20;82.40
1994;DHT22;998;49.906;10.908;2023-06-26T11:22:09;27.40;83.50
1994;DHT22;998;49.906;10.908;2023-06-26T11:24:37;27.30;82.20
1994;DHT22;998;49.906;10.908;2023-06-26T11:27:04;27.60;90.50
1994;DHT22;998;49.906;10.908;2023-06-26T11:29:32;27.60;78.20
1994;DHT22;998;49.906;10.908;2023-06-26T11:32:01;27.60;78.40
1994;DHT22;998;49.906;10.908;2023-06-26T11:34:33;27.60;79.40
1994;DHT22;998;49.906;10.908;2023-06-26T11:37:00;27.60;92.60
1994;DHT22;998;49.906;10.908;2023-06-26T11:39:32;28.00;81.80
1994;DHT22;998;49.906;10.908;2023-06-26T11:42:02;28.20;77.90
1994;DHT22;998;49.906;10.908;2023-06-26T11:44:31;28.30;77.80
1994;DHT22;998;49.906;10.908;2023-06-26T11:46:58;28.30;78.20
1994;DHT22;998;49.906;10.908;2023-06-26T11:49:28;28.30;77.40
1994;DHT22;998;49.906;10.908;2023-06-26T11:51:56;28.30;76.70
1994;DHT22;998;49.906;10.908;2023-06-26T11:54:27;28.50;75.20
1994;DHT22;998;49.906;10.908;2023-06-26T11:56:58;28.60;75.90
1994;DHT22;998;49.906;10.908;2023-06-26T11:59:35;28.70;75.80
1994;DHT22;998;49.906;10.908;2023-06-26T12:02:06;28.80;75.30
1994;DHT22;998;49.906;10.908;2023-06-26T12:04:36;28.90;75.40
1994;DHT22;998;49.906;10.908;2023-06-26T12:07:06;29.00;75.30
1994;DHT22;998;49.906;10.908;2023-06-26T12:09:37;29.10;73.10
1994;DHT22;998;49.906;10.908;2023-06-26T12:12:05;29.20;72.90
1994;DHT22;998;49.906;10.908;2023-06-26T12:14:32;29.30;72.70
1994;DHT22;998;49.906;10.908;2023-06-26T12:17:04;29.40;71.40
1994;DHT22;998;49.906;10.908;2023-06-26T12:19:31;29.50;71.10
1994;DHT22;998;49.906;10.908;2023-06-26T12:21:58;29.60;71.60
1994;DHT22;998;49.906;10.908;2023-06-26T12:24:26;29.70;72.00
1994;DHT22;998;49.906;10.908;2023-06-26T12:26:54;29.90;71.50
1994;DHT22;998;49.906;10.908;2023-06-26T12:29:29;30.00;71.30
1994;DHT22;998;49.906;10.908;2023-06-26T12:31:58;29.90;71.10
1994;DHT22;998;49.906;10.908;2023-06-26T12:34:27;30.20;70.70
1994;DHT22;998;49.906;10.908;2023-06-26T12:37:00;30.50;71.30
1994;DHT22;998;49.906;10.908;2023-06-26T12:39:29;30.80;68.80
1994;DHT22;998;49.906;10.908;2023-06-26T12:41:59;31.00;68.70
1994;DHT22;998;49.906;10.908;2023-06-26T12:44:27;31.20;69.70
1994;DHT22;998;49.906;10.908;2023-06-26T12:46:56;31.50;68.20
1994;DHT22;998;49.906;10.908;2023-06-26T12:49:33;31.70;66.50
1994;DHT22;998;49.906;10.908;2023-06-26T12:52:01;31.90;67.40
1994;DHT22;998;49.906;10.908;2023-06-26T12:54:30;31.90;66.30
1994;DHT22;998;49.906;10.908;2023-06-26T12:56:57;31.80;66.60
1994;DHT22;998;49.906;10.908;2023-06-26T12:59:24;32.00;66.90
1994;DHT22;998;49.906;10.908;2023-06-26T13:01:51;32.10;66.00
1994;DHT22;998;49.906;10.908;2023-06-26T13:04:18;32.10;66.20
1994;DHT22;998;49.906;10.908;2023-06-26T13:06:45;32.20;66.30
1994;DHT22;998;49.906;10.908;2023-06-26T13:09:13;32.40;65.90
1994;DHT22;998;49.906;10.908;2023-06-26T13:11:41;32.60;65.40
1994;DHT22;998;49.906;10.908;2023-06-26T13:14:08;32.50;64.40
1994;DHT22;998;49.906;10.908;2023-06-26T13:16:35;32.50;65.10
1994;DHT22;998;49.906;10.908;2023-06-26T13:19:02;32.20;63.80
1994;DHT22;998;49.906;10.908;2023-06-26T13:21:29;31.80;64.60
1994;DHT22;998;49.906;10.908;2023-06-26T13:23:56;31.70;66.00
1994;DHT22;998;49.906;10.908;2023-06-26T13:26:25;31.80;66.20
1994;DHT22;998;49.906;10.908;2023-06-26T13:28:53;32.00;67.80
1994;DHT22;998;49.906;10.908;2023-06-26T13:31:20;32.10;65.40
1994;DHT22;998;49.906;10.908;2023-06-26T13:33:47;32.10;67.00
1994;DHT22;998;49.906;10.908;2023-06-26T13:36:15;32.40;66.30
1994;DHT22;998;49.906;10.908;2023-06-26T13:38:42;32.00;66.00
1994;DHT22;998;49.906;10.908;2023-06-26T13:41:09;31.80;66.90
1994;DHT22;998;49.906;10.908;2023-06-26T13:43:36;31.30;68.20
1994;DHT22;998;49.906;10.908;2023-06-26T13:46:04;31.50;68.40
1994;DHT22;998;49.906;10.908;2023-06-26T13:48:37;31.80;68.80
1994;DHT22;998;49.906;10.908;2023-06-26T13:51:04;32.00;71.10
1994;DHT22;998;49.906;10.908;2023-06-26T13:53:31;32.20;68.70
1994;DHT22;998;49.906;10.908;2023-06-26T13:55:58;32.50;68.80
1994;DHT22;998;49.906;10.908;2023-06-26T13:58:24;32.50;68.60
1994;DHT22;998;49.906;10.908;2023-06-26T14:00:52;32.30;68.60
1994;DHT22;998;49.906;10.908;2023-06-26T14:03:20;32.30;70.00
1994;DHT22;998;49.906;10.908;2023-06-26T14:05:47;32.00;70.50
1994;DHT22;998;49.906;10.908;2023-06-26T14:10:42;31.50;72.00
1994;DHT22;998;49.906;10.908;2023-06-26T14:13:09;31.40;73.10
1994;DHT22;998;49.906;10.908;2023-06-26T14:15:37;31.30;73.10
1994;DHT22;998;49.906;10.908;2023-06-26T14:18:05;31.20;72.90
1994;DHT22;998;49.906;10.908;2023-06-26T14:20:36;31.30;72.50
1994;DHT22;998;49.906;10.908;2023-06-26T14:25:32;31.30;73.60
1994;DHT22;998;49.906;10.908;2023-06-26T14:27:59;31.40;75.60
1994;DHT22;998;49.906;10.908;2023-06-26T14:30:26;31.50;76.30
1994;DHT22;998;49.906;10.908;2023-06-26T14:32:53;31.50;75.90
1994;DHT22;998;49.906;10.908;2023-06-26T14:35:20;31.40;76.90
1994;DHT22;998;49.906;10.908;2023-06-26T14:37:48;31.50;76.70
1994;DHT22;998;49.906;10.908;2023-06-26T14:40:15;31.60;76.30
1994;DHT22;998;49.906;10.908;2023-06-26T14:42:42;31.50;75.20
1994;DHT22;998;49.906;10.908;2023-06-26T14:45:11;31.30;76.30
1994;DHT22;998;49.906;10.908;2023-06-26T14:47:37;31.30;76.60
1994;DHT22;998;49.906;10.908;2023-06-26T14:50:05;31.20;76.50
1994;DHT22;998;49.906;10.908;2023-06-26T14:52:33;31.10;77.40
1994;DHT22;998;49.906;10.908;2023-06-26T14:55:01;31.20;77.40
1994;DHT22;998;49.906;10.908;2023-06-26T14:57:28;31.20;77.20
1994;DHT22;998;49.906;10.908;2023-06-26T14:59:54;31.20;77.30
1994;DHT22;998;49.906;10.908;2023-06-26T15:02:21;31.10;78.00
1994;DHT22;998;49.906;10.908;2023-06-26T15:04:50;31.10;78.80
1994;DHT22;998;49.906;10.908;2023-06-26T15:07:17;31.10;78.00
1994;DHT22;998;49.906;10.908;2023-06-26T15:09:44;31.20;78.60
1994;DHT22;998;49.906;10.908;2023-06-26T15:12:12;31.20;79.10
1994;DHT22;998;49.906;10.908;2023-06-26T15:14:39;31.30;79.20
1994;DHT22;998;49.906;10.908;2023-06-26T15:17:06;31.30;79.80
1994;DHT22;998;49.906;10.908;2023-06-26T15:19:33;31.20;80.90
1994;DHT22;998;49.906;10.908;2023-06-26T15:22:00;31.30;80.30
1994;DHT22;998;49.906;10.908;2023-06-26T15:24:27;31.30;78.90
1994;DHT22;998;49.906;10.908;2023-06-26T15:26:54;31.00;80.00
1994;DHT22;998;49.906;10.908;2023-06-26T15:29:22;30.90;80.40
1994;DHT22;998;49.906;10.908;2023-06-26T15:31:49;30.80;81.00
1994;DHT22;998;49.906;10.908;2023-06-26T15:34:16;30.70;81.40
1994;DHT22;998;49.906;10.908;2023-06-26T15:36:42;30.60;81.00
1994;DHT22;998;49.906;10.908;2023-06-26T15:39:33;30.50;91.90
1994;DHT22;998;49.906;10.908;2023-06-26T15:42:05;30.20;79.50
1994;DHT22;998;49.906;10.908;2023-06-26T15:44:33;30.20;80.20
1994;DHT22;998;49.906;10.908;2023-06-26T15:47:00;30.20;79.80
1994;DHT22;998;49.906;10.908;2023-06-26T15:49:27;30.20;90.90
1994;DHT22;998;49.906;10.908;2023-06-26T15:51:54;30.20;78.30
1994;DHT22;998;49.906;10.908;2023-06-26T15:54:21;30.00;91.30
1994;DHT22;998;49.906;10.908;2023-06-26T15:56:48;30.00;79.40
1994;DHT22;998;49.906;10.908;2023-06-26T15:59:16;30.00;80.60
1994;DHT22;998;49.906;10.908;2023-06-26T16:01:45;30.00;91.70
1994;DHT22;998;49.906;10.908;2023-06-26T16:04:14;30.70;82.00
1994;DHT22;998;49.906;10.908;2023-06-26T16:06:40;30.20;81.90
1994;DHT22;998;49.906;10.908;2023-06-26T16:09:07;30.10;82.30
1994;DHT22;998;49.906;10.908;2023-06-26T16:11:34;30.10;82.10
1994;DHT22;998;49.906;10.908;2023-06-26T16:14:01;30.20;80.80
1994;DHT22;998;49.906;10.908;2023-06-26T16:16:27;30.30;79.50